sensor_id;sensor_type;location;lat;lon;timestamp;P1;durP1;ratioP1;P2;durP2;ratioP2
19617;SDS011;9956;51.006;13.670;2022-10-16T00:03:08;7.28;;;6.57;;
19617;SDS011;9956;51.006;13.670;2022-10-16T00:08:09;7.63;;;6.78;;
19617;SDS011;9956;51.006;13.670;2022-10-16T00:13:15;7.90;;;7.07;;
19617;SDS011;9956;51.006;13.670;2022-10-16T00:18:17;8.02;;;7.22;;
19617;SDS011;9956;51.006;13.670;2022-10-16T00:23:18;9.43;;;6.72;;
19617;SDS011;9956;51.006;13.670;2022-10-16T00:28:19;10.15;;;7.88;;
19617;SDS011;9956;51.006;13.670;2022-10-16T00:33:20;7.82;;;7.03;;
19617;SDS011;9956;51.006;13.670;2022-10-16T00:38:20;7.68;;;6.88;;
19617;SDS011;9956;51.006;13.670;2022-10-16T00:43:41;6.88;;;6.18;;
19617;SDS011;9956;51.006;13.670;2022-10-16T00:48:45;7.97;;;7.28;;
19617;SDS011;9956;51.006;13.670;2022-10-16T00:53:56;7.97;;;7.18;;
19617;SDS011;9956;51.006;13.670;2022-10-16T00:58:56;8.18;;;7.38;;
19617;SDS011;9956;51.006;13.670;2022-10-16T01:03:57;9.55;;;7.93;;
19617;SDS011;9956;51.006;13.670;2022-10-16T01:09:02;9.10;;;7.72;;
19617;SDS011;9956;51.006;13.670;2022-10-16T01:19:50;9.65;;;7.50;;
19617;SDS011;9956;51.006;13.670;2022-10-16T01:24:56;11.13;;;7.65;;
19617;SDS011;9956;51.006;13.670;2022-10-16T01:35:25;9.55;;;7.28;;
19617;SDS011;9956;51.006;13.670;2022-10-16T01:40:28;7.38;;;6.70;;
19617;SDS011;9956;51.006;13.670;2022-10-16T01:45:33;7.75;;;6.80;;
19617;SDS011;9956;51.006;13.670;2022-10-16T01:50:35;7.25;;;6.55;;
19617;SDS011;9956;51.006;13.670;2022-10-16T01:55:39;10.93;;;7.07;;
19617;SDS011;9956;51.006;13.670;2022-10-16T02:00:45;6.68;;;6.07;;
19617;SDS011;9956;51.006;13.670;2022-10-16T02:05:49;8.57;;;5.68;;
19617;SDS011;9956;51.006;13.670;2022-10-16T02:10:51;6.05;;;5.50;;
19617;SDS011;9956;51.006;13.670;2022-10-16T02:15:52;6.20;;;5.60;;
19617;SDS011;9956;51.006;13.670;2022-10-16T02:21:10;6.80;;;6.10;;
19617;SDS011;9956;51.006;13.670;2022-10-16T02:26:31;6.00;;;5.40;;
19617;SDS011;9956;51.006;13.670;2022-10-16T02:31:37;8.15;;;6.18;;
19617;SDS011;9956;51.006;13.670;2022-10-16T02:36:39;7.43;;;6.72;;
19617;SDS011;9956;51.006;13.670;2022-10-16T02:41:40;7.55;;;6.88;;
19617;SDS011;9956;51.006;13.670;2022-10-16T02:46:40;8.07;;;7.38;;
19617;SDS011;9956;51.006;13.670;2022-10-16T02:51:40;9.45;;;8.45;;
19617;SDS011;9956;51.006;13.670;2022-10-16T02:56:41;165.45;;;95.28;;
19617;SDS011;9956;51.006;13.670;2022-10-16T03:01:41;107.35;;;59.13;;
19617;SDS011;9956;51.006;13.670;2022-10-16T03:06:42;54.30;;;34.03;;
19617;SDS011;9956;51.006;13.670;2022-10-16T03:11:42;43.90;;;28.55;;
19617;SDS011;9956;51.006;13.670;2022-10-16T03:16:43;47.92;;;30.83;;
19617;SDS011;9956;51.006;13.670;2022-10-16T03:21:43;73.80;;;44.25;;
19617;SDS011;9956;51.006;13.670;2022-10-16T03:26:44;72.90;;;47.63;;
19617;SDS011;9956;51.006;13.670;2022-10-16T03:31:44;61.15;;;40.55;;
19617;SDS011;9956;51.006;13.670;2022-10-16T03:36:45;44.90;;;29.60;;
19617;SDS011;9956;51.006;13.670;2022-10-16T03:41:45;34.63;;;25.35;;
19617;SDS011;9956;51.006;13.670;2022-10-16T03:46:48;25.30;;;17.75;;
19617;SDS011;9956;51.006;13.670;2022-10-16T03:51:49;21.77;;;14.57;;
19617;SDS011;9956;51.006;13.670;2022-10-16T03:56:49;11.95;;;9.55;;
19617;SDS011;9956;51.006;13.670;2022-10-16T04:01:50;9.07;;;7.65;;
19617;SDS011;9956;51.006;13.670;2022-10-16T04:06:50;9.43;;;7.43;;
19617;SDS011;9956;51.006;13.670;2022-10-16T04:11:51;13.07;;;10.55;;
19617;SDS011;9956;51.006;13.670;2022-10-16T04:16:51;18.75;;;12.57;;
19617;SDS011;9956;51.006;13.670;2022-10-16T04:21:52;13.75;;;10.10;;
19617;SDS011;9956;51.006;13.670;2022-10-16T04:26:52;12.68;;;10.55;;
19617;SDS011;9956;51.006;13.670;2022-10-16T04:31:52;10.88;;;9.60;;
19617;SDS011;9956;51.006;13.670;2022-10-16T04:36:53;7.57;;;6.20;;
19617;SDS011;9956;51.006;13.670;2022-10-16T04:41:53;9.05;;;6.68;;
19617;SDS011;9956;51.006;13.670;2022-10-16T04:46:53;11.13;;;8.90;;
19617;SDS011;9956;51.006;13.670;2022-10-16T04:51:54;13.52;;;9.30;;
19617;SDS011;9956;51.006;13.670;2022-10-16T04:56:54;6.88;;;6.05;;
19617;SDS011;9956;51.006;13.670;2022-10-16T05:01:55;15.30;;;13.40;;
19617;SDS011;9956;51.006;13.670;2022-10-16T05:06:55;48.33;;;34.42;;
19617;SDS011;9956;51.006;13.670;2022-10-16T05:11:55;35.72;;;26.63;;
19617;SDS011;9956;51.006;13.670;2022-10-16T05:16:56;26.42;;;20.17;;
19617;SDS011;9956;51.006;13.670;2022-10-16T05:21:57;20.08;;;16.85;;
19617;SDS011;9956;51.006;13.670;2022-10-16T05:26:57;10.13;;;8.13;;
19617;SDS011;9956;51.006;13.670;2022-10-16T05:31:58;15.32;;;12.10;;
19617;SDS011;9956;51.006;13.670;2022-10-16T05:36:59;20.48;;;18.27;;
19617;SDS011;9956;51.006;13.670;2022-10-16T05:41:59;48.10;;;40.08;;
19617;SDS011;9956;51.006;13.670;2022-10-16T05:47:00;17.13;;;15.32;;
19617;SDS011;9956;51.006;13.670;2022-10-16T05:52:00;12.13;;;10.77;;
19617;SDS011;9956;51.006;13.670;2022-10-16T05:57:01;15.63;;;11.65;;
19617;SDS011;9956;51.006;13.670;2022-10-16T06:02:02;14.00;;;12.50;;
19617;SDS011;9956;51.006;13.670;2022-10-16T06:07:02;22.50;;;16.95;;
19617;SDS011;9956;51.006;13.670;2022-10-16T06:12:03;12.52;;;11.13;;
19617;SDS011;9956;51.006;13.670;2022-10-16T06:17:03;11.32;;;8.65;;
19617;SDS011;9956;51.006;13.670;2022-10-16T06:22:03;9.38;;;8.40;;
19617;SDS011;9956;51.006;13.670;2022-10-16T06:27:04;9.43;;;7.45;;
19617;SDS011;9956;51.006;13.670;2022-10-16T06:32:04;8.50;;;7.60;;
19617;SDS011;9956;51.006;13.670;2022-10-16T06:37:05;7.80;;;7.00;;
19617;SDS011;9956;51.006;13.670;2022-10-16T06:42:05;8.52;;;6.00;;
19617;SDS011;9956;51.006;13.670;2022-10-16T06:47:09;5.68;;;4.93;;
19617;SDS011;9956;51.006;13.670;2022-10-16T06:52:10;5.88;;;5.20;;
19617;SDS011;9956;51.006;13.670;2022-10-16T06:57:10;3.35;;;3.05;;
19617;SDS011;9956;51.006;13.670;2022-10-16T07:02:11;3.30;;;3.00;;
19617;SDS011;9956;51.006;13.670;2022-10-16T07:07:11;4.13;;;2.33;;
19617;SDS011;9956;51.006;13.670;2022-10-16T07:12:11;3.47;;;2.13;;
19617;SDS011;9956;51.006;13.670;2022-10-16T07:17:12;6.57;;;4.18;;
19617;SDS011;9956;51.006;13.670;2022-10-16T07:22:12;3.25;;;2.50;;
19617;SDS011;9956;51.006;13.670;2022-10-16T07:27:13;2.58;;;1.50;;
19617;SDS011;9956;51.006;13.670;2022-10-16T07:32:13;1.33;;;0.98;;
19617;SDS011;9956;51.006;13.670;2022-10-16T07:37:13;1.30;;;0.95;;
19617;SDS011;9956;51.006;13.670;2022-10-16T07:42:14;1.10;;;0.95;;
19617;SDS011;9956;51.006;13.670;2022-10-16T07:47:14;1.42;;;1.20;;
19617;SDS011;9956;51.006;13.670;2022-10-16T07:52:15;2.58;;;0.93;;
19617;SDS011;9956;51.006;13.670;2022-10-16T07:57:15;1.02;;;0.50;;
19617;SDS011;9956;51.006;13.670;2022-10-16T08:02:19;2.20;;;0.60;;
19617;SDS011;9956;51.006;13.670;2022-10-16T08:07:19;3.20;;;2.20;;
19617;SDS011;9956;51.006;13.670;2022-10-16T08:12:20;1.10;;;1.00;;
19617;SDS011;9956;51.006;13.670;2022-10-16T08:17:20;0.95;;;0.60;;
19617;SDS011;9956;51.006;13.670;2022-10-16T08:22:20;0.57;;;0.57;;
19617;SDS011;9956;51.006;13.670;2022-10-16T08:27:21;2.47;;;1.40;;
19617;SDS011;9956;51.006;13.670;2022-10-16T08:32:21;4.18;;;3.50;;
19617;SDS011;9956;51.006;13.670;2022-10-16T08:37:22;4.25;;;3.17;;
19617;SDS011;9956;51.006;13.670;2022-10-16T08:42:38;3.58;;;3.28;;
19617;SDS011;9956;51.006;13.670;2022-10-16T08:47:59;3.08;;;2.78;;
19617;SDS011;9956;51.006;13.670;2022-10-16T08:53:04;1.30;;;0.75;;
19617;SDS011;9956;51.006;13.670;2022-10-16T08:58:10;1.45;;;0.90;;
19617;SDS011;9956;51.006;13.670;2022-10-16T09:18:53;1.50;;;0.50;;
19617;SDS011;9956;51.006;13.670;2022-10-16T09:24:14;0.45;;;0.30;;
19617;SDS011;9956;51.006;13.670;2022-10-16T09:29:16;0.30;;;0.30;;
19617;SDS011;9956;51.006;13.670;2022-10-16T09:34:39;0.30;;;0.20;;
19617;SDS011;9956;51.006;13.670;2022-10-16T09:39:46;0.60;;;0.40;;
19617;SDS011;9956;51.006;13.670;2022-10-16T09:44:51;0.52;;;0.40;;
19617;SDS011;9956;51.006;13.670;2022-10-16T09:50:01;0.90;;;0.45;;
19617;SDS011;9956;51.006;13.670;2022-10-16T09:55:20;1.63;;;0.50;;
19617;SDS011;9956;51.006;13.670;2022-10-16T10:00:21;1.27;;;0.50;;
19617;SDS011;9956;51.006;13.670;2022-10-16T10:05:27;4.07;;;0.38;;
19617;SDS011;9956;51.006;13.670;2022-10-16T10:10:29;0.77;;;0.30;;
19617;SDS011;9956;51.006;13.670;2022-10-16T10:15:33;1.25;;;0.63;;
19617;SDS011;9956;51.006;13.670;2022-10-16T10:20:35;2.05;;;0.52;;
19617;SDS011;9956;51.006;13.670;2022-10-16T10:30:51;1.20;;;0.60;;
19617;SDS011;9956;51.006;13.670;2022-10-16T10:47:22;1.35;;;0.40;;
19617;SDS011;9956;51.006;13.670;2022-10-16T10:58:04;1.30;;;0.40;;
19617;SDS011;9956;51.006;13.670;2022-10-16T11:08:37;1.50;;;0.47;;
19617;SDS011;9956;51.006;13.670;2022-10-16T11:24:33;1.27;;;0.30;;
19617;SDS011;9956;51.006;13.670;2022-10-16T11:29:41;0.65;;;0.30;;
19617;SDS011;9956;51.006;13.670;2022-10-16T11:34:48;1.25;;;0.60;;
19617;SDS011;9956;51.006;13.670;2022-10-16T11:39:52;0.82;;;0.30;;
19617;SDS011;9956;51.006;13.670;2022-10-16T11:51:05;0.68;;;0.47;;
19617;SDS011;9956;51.006;13.670;2022-10-16T11:55:40;1.38;;;1.10;;
19617;SDS011;9956;51.006;13.670;2022-10-16T12:06:13;0.88;;;0.38;;
19617;SDS011;9956;51.006;13.670;2022-10-16T12:16:29;1.90;;;0.40;;
19617;SDS011;9956;51.006;13.670;2022-10-16T12:21:30;1.30;;;0.40;;
19617;SDS011;9956;51.006;13.670;2022-10-16T12:26:32;0.77;;;0.32;;
19617;SDS011;9956;51.006;13.670;2022-10-16T12:31:38;0.80;;;0.40;;
19617;SDS011;9956;51.006;13.670;2022-10-16T12:36:43;1.25;;;0.30;;
19617;SDS011;9956;51.006;13.670;2022-10-16T12:41:43;1.15;;;0.60;;
19617;SDS011;9956;51.006;13.670;2022-10-16T12:46:44;0.85;;;0.20;;
19617;SDS011;9956;51.006;13.670;2022-10-16T12:51:44;0.50;;;0.30;;
19617;SDS011;9956;51.006;13.670;2022-10-16T12:57:03;0.60;;;0.30;;
19617;SDS011;9956;51.006;13.670;2022-10-16T13:07:44;0.63;;;0.45;;
19617;SDS011;9956;51.006;13.670;2022-10-16T13:12:50;0.95;;;0.40;;
19617;SDS011;9956;51.006;13.670;2022-10-16T13:18:02;3.10;;;0.50;;
19617;SDS011;9956;51.006;13.670;2022-10-16T13:23:12;2.15;;;0.50;;
19617;SDS011;9956;51.006;13.670;2022-10-16T13:28:15;0.75;;;0.43;;
19617;SDS011;9956;51.006;13.670;2022-10-16T13:33:17;0.47;;;0.38;;
19617;SDS011;9956;51.006;13.670;2022-10-16T13:38:33;0.98;;;0.30;;
19617;SDS011;9956;51.006;13.670;2022-10-16T13:43:41;1.95;;;0.60;;
19617;SDS011;9956;51.006;13.670;2022-10-16T13:48:44;1.08;;;0.70;;
19617;SDS011;9956;51.006;13.670;2022-10-16T13:53:55;1.42;;;0.90;;
19617;SDS011;9956;51.006;13.670;2022-10-16T13:59:04;1.23;;;0.60;;
19617;SDS011;9956;51.006;13.670;2022-10-16T14:04:06;2.50;;;1.00;;
19617;SDS011;9956;51.006;13.670;2022-10-16T14:09:09;0.80;;;0.52;;
19617;SDS011;9956;51.006;13.670;2022-10-16T14:14:13;0.80;;;0.63;;
19617;SDS011;9956;51.006;13.670;2022-10-16T14:19:19;2.38;;;0.70;;
19617;SDS011;9956;51.006;13.670;2022-10-16T14:24:31;1.02;;;0.70;;
19617;SDS011;9956;51.006;13.670;2022-10-16T14:29:33;0.70;;;0.68;;
19617;SDS011;9956;51.006;13.670;2022-10-16T14:34:36;1.48;;;0.57;;
19617;SDS011;9956;51.006;13.670;2022-10-16T14:39:40;3.75;;;0.70;;
19617;SDS011;9956;51.006;13.670;2022-10-16T14:44:40;1.70;;;0.65;;
19617;SDS011;9956;51.006;13.670;2022-10-16T14:49:41;0.88;;;0.60;;
19617;SDS011;9956;51.006;13.670;2022-10-16T14:54:42;0.70;;;0.50;;
19617;SDS011;9956;51.006;13.670;2022-10-16T14:59:43;0.93;;;0.50;;
19617;SDS011;9956;51.006;13.670;2022-10-16T15:04:46;7.38;;;1.50;;
19617;SDS011;9956;51.006;13.670;2022-10-16T15:09:47;1.27;;;0.60;;
19617;SDS011;9956;51.006;13.670;2022-10-16T15:14:48;2.40;;;0.70;;
19617;SDS011;9956;51.006;13.670;2022-10-16T15:19:48;1.17;;;0.80;;
19617;SDS011;9956;51.006;13.670;2022-10-16T15:24:49;2.05;;;0.73;;
19617;SDS011;9956;51.006;13.670;2022-10-16T15:29:49;1.65;;;0.60;;
19617;SDS011;9956;51.006;13.670;2022-10-16T15:34:50;2.42;;;0.73;;
19617;SDS011;9956;51.006;13.670;2022-10-16T15:39:50;1.77;;;0.55;;
19617;SDS011;9956;51.006;13.670;2022-10-16T15:44:50;2.13;;;0.70;;
19617;SDS011;9956;51.006;13.670;2022-10-16T15:49:51;0.80;;;0.60;;
19617;SDS011;9956;51.006;13.670;2022-10-16T15:54:51;1.77;;;0.70;;
19617;SDS011;9956;51.006;13.670;2022-10-16T15:59:52;0.90;;;0.70;;
19617;SDS011;9956;51.006;13.670;2022-10-16T16:04:52;3.70;;;0.63;;
19617;SDS011;9956;51.006;13.670;2022-10-16T16:09:53;2.65;;;0.75;;
19617;SDS011;9956;51.006;13.670;2022-10-16T16:14:53;1.23;;;0.90;;
19617;SDS011;9956;51.006;13.670;2022-10-16T16:19:54;3.30;;;1.50;;
19617;SDS011;9956;51.006;13.670;2022-10-16T16:24:54;2.00;;;1.67;;
19617;SDS011;9956;51.006;13.670;2022-10-16T16:29:55;2.42;;;1.75;;
19617;SDS011;9956;51.006;13.670;2022-10-16T16:34:56;4.35;;;1.90;;
19617;SDS011;9956;51.006;13.670;2022-10-16T16:39:56;3.33;;;2.20;;
19617;SDS011;9956;51.006;13.670;2022-10-16T16:44:58;2.20;;;2.00;;
19617;SDS011;9956;51.006;13.670;2022-10-16T16:49:59;5.22;;;2.40;;
19617;SDS011;9956;51.006;13.670;2022-10-16T16:55:04;2.55;;;2.03;;
19617;SDS011;9956;51.006;13.670;2022-10-16T17:00:05;3.05;;;2.20;;
19617;SDS011;9956;51.006;13.670;2022-10-16T17:05:06;4.80;;;2.40;;
19617;SDS011;9956;51.006;13.670;2022-10-16T17:10:07;3.95;;;2.17;;
19617;SDS011;9956;51.006;13.670;2022-10-16T17:15:08;3.25;;;2.70;;
19617;SDS011;9956;51.006;13.670;2022-10-16T17:20:09;6.25;;;3.40;;
19617;SDS011;9956;51.006;13.670;2022-10-16T17:25:10;5.10;;;4.07;;
19617;SDS011;9956;51.006;13.670;2022-10-16T17:30:10;5.47;;;3.60;;
19617;SDS011;9956;51.006;13.670;2022-10-16T17:35:11;7.00;;;4.82;;
19617;SDS011;9956;51.006;13.670;2022-10-16T17:40:11;5.88;;;4.72;;
19617;SDS011;9956;51.006;13.670;2022-10-16T17:45:12;6.65;;;4.95;;
19617;SDS011;9956;51.006;13.670;2022-10-16T17:50:12;5.75;;;4.10;;
19617;SDS011;9956;51.006;13.670;2022-10-16T17:55:13;5.72;;;4.57;;
19617;SDS011;9956;51.006;13.670;2022-10-16T18:00:13;7.15;;;5.22;;
19617;SDS011;9956;51.006;13.670;2022-10-16T18:05:14;5.60;;;4.75;;
19617;SDS011;9956;51.006;13.670;2022-10-16T18:10:14;6.30;;;4.72;;
19617;SDS011;9956;51.006;13.670;2022-10-16T18:15:15;6.57;;;4.20;;
19617;SDS011;9956;51.006;13.670;2022-10-16T18:20:15;6.00;;;4.38;;
19617;SDS011;9956;51.006;13.670;2022-10-16T18:25:16;9.00;;;7.85;;
19617;SDS011;9956;51.006;13.670;2022-10-16T18:30:16;11.95;;;10.45;;
19617;SDS011;9956;51.006;13.670;2022-10-16T18:35:17;12.88;;;8.80;;
19617;SDS011;9956;51.006;13.670;2022-10-16T18:40:17;9.95;;;8.30;;
19617;SDS011;9956;51.006;13.670;2022-10-16T18:45:18;11.82;;;7.78;;
19617;SDS011;9956;51.006;13.670;2022-10-16T18:50:19;8.75;;;6.97;;
19617;SDS011;9956;51.006;13.670;2022-10-16T18:55:21;6.93;;;5.93;;
19617;SDS011;9956;51.006;13.670;2022-10-16T19:00:21;7.45;;;5.57;;
19617;SDS011;9956;51.006;13.670;2022-10-16T19:05:22;6.15;;;5.40;;
19617;SDS011;9956;51.006;13.670;2022-10-16T19:10:23;8.95;;;4.85;;
19617;SDS011;9956;51.006;13.670;2022-10-16T19:15:24;7.63;;;5.45;;
19617;SDS011;9956;51.006;13.670;2022-10-16T19:20:24;7.70;;;6.00;;
19617;SDS011;9956;51.006;13.670;2022-10-16T19:25:25;10.23;;;7.75;;
19617;SDS011;9956;51.006;13.670;2022-10-16T19:30:27;8.65;;;7.43;;
19617;SDS011;9956;51.006;13.670;2022-10-16T19:35:27;6.45;;;5.85;;
19617;SDS011;9956;51.006;13.670;2022-10-16T19:40:27;9.65;;;6.32;;
19617;SDS011;9956;51.006;13.670;2022-10-16T19:45:28;8.23;;;6.88;;
19617;SDS011;9956;51.006;13.670;2022-10-16T19:50:28;6.30;;;5.70;;
19617;SDS011;9956;51.006;13.670;2022-10-16T19:55:32;7.78;;;5.60;;
19617;SDS011;9956;51.006;13.670;2022-10-16T20:00:32;6.38;;;4.97;;
19617;SDS011;9956;51.006;13.670;2022-10-16T20:05:33;4.88;;;4.47;;
19617;SDS011;9956;51.006;13.670;2022-10-16T20:10:33;5.88;;;5.32;;
19617;SDS011;9956;51.006;13.670;2022-10-16T20:15:35;6.05;;;5.18;;
19617;SDS011;9956;51.006;13.670;2022-10-16T20:20:46;5.50;;;4.85;;
19617;SDS011;9956;51.006;13.670;2022-10-16T20:25:49;7.45;;;5.95;;
19617;SDS011;9956;51.006;13.670;2022-10-16T20:30:51;8.48;;;6.63;;
19617;SDS011;9956;51.006;13.670;2022-10-16T20:35:52;7.20;;;6.50;;
19617;SDS011;9956;51.006;13.670;2022-10-16T20:40:52;10.70;;;7.70;;
19617;SDS011;9956;51.006;13.670;2022-10-16T20:46:03;8.73;;;6.45;;
19617;SDS011;9956;51.006;13.670;2022-10-16T20:51:14;9.60;;;7.18;;
19617;SDS011;9956;51.006;13.670;2022-10-16T20:56:17;8.00;;;6.35;;
19617;SDS011;9956;51.006;13.670;2022-10-16T21:01:23;8.00;;;4.88;;
19617;SDS011;9956;51.006;13.670;2022-10-16T21:06:25;9.43;;;7.22;;
19617;SDS011;9956;51.006;13.670;2022-10-16T21:11:25;9.68;;;6.40;;
19617;SDS011;9956;51.006;13.670;2022-10-16T21:16:26;11.45;;;7.97;;
19617;SDS011;9956;51.006;13.670;2022-10-16T21:21:28;10.63;;;8.00;;
19617;SDS011;9956;51.006;13.670;2022-10-16T21:26:30;8.30;;;7.40;;
19617;SDS011;9956;51.006;13.670;2022-10-16T21:31:31;7.60;;;6.80;;
19617;SDS011;9956;51.006;13.670;2022-10-16T21:36:33;9.48;;;6.82;;
19617;SDS011;9956;51.006;13.670;2022-10-16T21:41:35;6.82;;;5.90;;
19617;SDS011;9956;51.006;13.670;2022-10-16T21:46:37;6.18;;;5.43;;
19617;SDS011;9956;51.006;13.670;2022-10-16T21:51:39;9.93;;;5.63;;
19617;SDS011;9956;51.006;13.670;2022-10-16T21:56:41;6.43;;;5.28;;
19617;SDS011;9956;51.006;13.670;2022-10-16T22:01:42;8.43;;;5.82;;
19617;SDS011;9956;51.006;13.670;2022-10-16T22:06:42;9.80;;;6.30;;
19617;SDS011;9956;51.006;13.670;2022-10-16T22:11:43;8.02;;;6.50;;
19617;SDS011;9956;51.006;13.670;2022-10-16T22:16:44;7.57;;;6.00;;
19617;SDS011;9956;51.006;13.670;2022-10-16T22:21:45;8.35;;;5.78;;
19617;SDS011;9956;51.006;13.670;2022-10-16T22:26:46;8.52;;;5.80;;
19617;SDS011;9956;51.006;13.670;2022-10-16T22:31:50;6.40;;;5.78;;
19617;SDS011;9956;51.006;13.670;2022-10-16T22:36:51;5.82;;;5.22;;
19617;SDS011;9956;51.006;13.670;2022-10-16T22:41:51;6.75;;;5.75;;
19617;SDS011;9956;51.006;13.670;2022-10-16T22:46:52;7.50;;;5.55;;
19617;SDS011;9956;51.006;13.670;2022-10-16T22:51:52;6.70;;;5.65;;
19617;SDS011;9956;51.006;13.670;2022-10-16T22:56:53;7.50;;;5.03;;
19617;SDS011;9956;51.006;13.670;2022-10-16T23:01:53;6.72;;;5.20;;
19617;SDS011;9956;51.006;13.670;2022-10-16T23:06:53;6.93;;;6.32;;
19617;SDS011;9956;51.006;13.670;2022-10-16T23:11:54;8.70;;;6.43;;
19617;SDS011;9956;51.006;13.670;2022-10-16T23:16:54;7.60;;;6.75;;
19617;SDS011;9956;51.006;13.670;2022-10-16T23:21:55;10.43;;;6.10;;
19617;SDS011;9956;51.006;13.670;2022-10-16T23:26:55;7.95;;;5.65;;
19617;SDS011;9956;51.006;13.670;2022-10-16T23:31:56;6.88;;;6.18;;
19617;SDS011;9956;51.006;13.670;2022-10-16T23:36:56;5.93;;;5.28;;
19617;SDS011;9956;51.006;13.670;2022-10-16T23:41:57;8.82;;;5.63;;
19617;SDS011;9956;51.006;13.670;2022-10-16T23:46:57;5.38;;;4.82;;
19617;SDS011;9956;51.006;13.670;2022-10-16T23:51:58;5.80;;;4.63;;
19617;SDS011;9956;51.006;13.670;2022-10-16T23:56:58;5.28;;;4.60;;
